Jump to content


AMERICAN AIRLINES FLIGHT AA308 FLOWN ON 07-28-2017 BY CAPTAIN JIM BOERMAN

Pilot StatsCaptain Jim Boerman (LDP136) • 4,616.9 total hours • 1,400 total flights [View Logbook]
FLIGHT DETAILS
StatusReceived and approved on 2017-07-28 at 11:07:14
Origin AirportMiami Intl (KMIA) • Miami, Florida, United States (8 feet MSL)
Filed Flight PlanFLIGHT PLANNER OFFLINE
Destination AirportBermuda Intl (TXKF) • Bermuda Is, Bermuda (12 feet MSL)
Alternate AirportNantucket Meml (KACK) • Nantucket, Massachusetts, United States (48 feet MSL)
AirlineAmerican Airlines
AircraftAirbus A320 (320 / A320)
FS Aircraft UsedFeelthere A320 CFM Airbus House
Cruising AltitudeFL330
Distance Flown907 nautical miles
Passengers Onboard125 passengers (83.33% full)
DEPARTURE DETAILS
Time Out08:29:18
Taxi Data133,347 lbs total with 26,249 lbs of fuel onboard
Takeoff Data08:41:01 (12 minutes after leaving gate/ramp) • 132,496 lbs total • 8° pitch at 146 knots
Departure METARKMIA 281153Z 00000KT 10SM FEW023 FEW180 SCT300 29/25 A2998 RMK AO2 SLP153 CB DSNT NE-SE-SW MOV NW T02940250 10294 20278 53016
ARRIVAL DETAILS
Landing Data11:04:12 • 120,636 lbs total • 3° pitch doing 123 knots at a rate of -197.62 feet/minute with 12,540 lbs of fuel onboard
Time In11:19:19 (15 minutes after landing)
Ramp Weight119,638 lbs total
Total Fuel Used13,709 lbs
Total Block Time02:46:27 (2.8 hours) while 27 minutes were spent on the ground
Arrival METARTXKF 281455Z 34010KT 9999 VCSH SCT020TCU BKN110 BKN300 28/23 Q1014 RMK TCU SE
MISCELLANEOUS DETAILS
LiveDISPATCH Version4.8.3.1
FS Version
FSUIPC Version4.93
OS VersionWindows 7 32-bit
Screen Resolution1920 x 1080
Pilot's CommentsNo Comments Reported
FLIGHT MAP